Nueve de Julio, Argentina
Current Conditions -  °F | °C
As of 4:00 PM on Sunday 23 Nov 2014 (Local Time) from SAEZ Reporting Station
Clear Clear  
Wind Chill: 84°   Ceiling: Unl
Heat Index: 84°   Visibility: 6mi
Dew Point: 55°   Wind: 9mph
Humidity: 37%   Direction: 360°N
Pressure: 29.77"   Gusts: NA
Location:  35.45°S, 60.87°W
Report Text: SAEZ 231900Z 36008KT 320V040 CAVOK 29/13 Q1008
Loading
Personal Weather Stations






























Interactive Weather Map New forecast layout! Learn more

10-Day Weather Forecast

Advertisements
Track Severe Weather on mobile